sensor_id;sensor_type;location;lat;lon;timestamp;temperature;humidity
3778;DHT22;1904;50.076;8.660;2023-04-24T00:01:22;12.30;1.00
3778;DHT22;1904;50.076;8.660;2023-04-24T00:03:47;12.30;1.00
3778;DHT22;1904;50.076;8.660;2023-04-24T00:06:18;12.40;1.00
3778;DHT22;1904;50.076;8.660;2023-04-24T00:08:43;12.40;1.00
3778;DHT22;1904;50.076;8.660;2023-04-24T00:11:09;12.40;1.00
3778;DHT22;1904;50.076;8.660;2023-04-24T00:16:23;12.40;1.00
3778;DHT22;1904;50.076;8.660;2023-04-24T00:21:38;12.30;1.00
3778;DHT22;1904;50.076;8.660;2023-04-24T00:24:06;12.30;1.00
3778;DHT22;1904;50.076;8.660;2023-04-24T00:26:35;12.30;1.00
3778;DHT22;1904;50.076;8.660;2023-04-24T00:29:11;12.30;1.00
3778;DHT22;1904;50.076;8.660;2023-04-24T00:34:35;12.20;1.00
3778;DHT22;1904;50.076;8.660;2023-04-24T00:37:18;12.30;1.00
3778;DHT22;1904;50.076;8.660;2023-04-24T00:40:00;12.30;1.00
3778;DHT22;1904;50.076;8.660;2023-04-24T00:42:29;12.30;1.00
3778;DHT22;1904;50.076;8.660;2023-04-24T00:44:59;12.30;1.00
3778;DHT22;1904;50.076;8.660;2023-04-24T00:50:28;12.30;1.00
3778;DHT22;1904;50.076;8.660;2023-04-24T00:55:37;12.20;1.00
3778;DHT22;1904;50.076;8.660;2023-04-24T01:01:12;12.20;1.00
3778;DHT22;1904;50.076;8.660;2023-04-24T01:09:30;12.20;1.00
3778;DHT22;1904;50.076;8.660;2023-04-24T01:11:59;12.20;1.00
3778;DHT22;1904;50.076;8.660;2023-04-24T01:14:26;12.20;1.00
3778;DHT22;1904;50.076;8.660;2023-04-24T01:16:51;12.20;1.00
3778;DHT22;1904;50.076;8.660;2023-04-24T01:22:09;12.10;1.00
3778;DHT22;1904;50.076;8.660;2023-04-24T01:24:35;12.00;1.00
3778;DHT22;1904;50.076;8.660;2023-04-24T01:27:06;12.00;1.00
3778;DHT22;1904;50.076;8.660;2023-04-24T01:29:31;12.00;1.00
3778;DHT22;1904;50.076;8.660;2023-04-24T01:31:57;11.90;1.00
3778;DHT22;1904;50.076;8.660;2023-04-24T01:34:23;11.80;1.00
3778;DHT22;1904;50.076;8.660;2023-04-24T01:36:49;11.80;1.00
3778;DHT22;1904;50.076;8.660;2023-04-24T01:39:15;11.70;1.00
3778;DHT22;1904;50.076;8.660;2023-04-24T01:41:42;11.60;1.00
3778;DHT22;1904;50.076;8.660;2023-04-24T01:44:24;11.60;1.00
3778;DHT22;1904;50.076;8.660;2023-04-24T01:46:54;11.50;1.00
3778;DHT22;1904;50.076;8.660;2023-04-24T01:49:30;11.50;1.00
3778;DHT22;1904;50.076;8.660;2023-04-24T01:55:00;11.60;1.00
3778;DHT22;1904;50.076;8.660;2023-04-24T02:03:31;11.80;1.00
3778;DHT22;1904;50.076;8.660;2023-04-24T02:06:00;11.80;1.00
3778;DHT22;1904;50.076;8.660;2023-04-24T02:08:29;11.80;1.00
3778;DHT22;1904;50.076;8.660;2023-04-24T02:11:06;11.80;1.00
3778;DHT22;1904;50.076;8.660;2023-04-24T02:13:31;11.80;1.00
3778;DHT22;1904;50.076;8.660;2023-04-24T02:16:05;11.80;1.00
3778;DHT22;1904;50.076;8.660;2023-04-24T02:18:31;11.80;1.00
3778;DHT22;1904;50.076;8.660;2023-04-24T02:21:05;11.80;1.00
3778;DHT22;1904;50.076;8.660;2023-04-24T02:23:42;11.70;1.00
3778;DHT22;1904;50.076;8.660;2023-04-24T02:26:12;11.70;1.00
3778;DHT22;1904;50.076;8.660;2023-04-24T02:31:29;11.60;1.00
3778;DHT22;1904;50.076;8.660;2023-04-24T02:39:46;11.40;1.00
3778;DHT22;1904;50.076;8.660;2023-04-24T02:45:14;11.40;1.00
3778;DHT22;1904;50.076;8.660;2023-04-24T02:47:40;11.30;1.00
3778;DHT22;1904;50.076;8.660;2023-04-24T02:50:05;11.20;1.00
3778;DHT22;1904;50.076;8.660;2023-04-24T02:52:42;11.20;1.00
3778;DHT22;1904;50.076;8.660;2023-04-24T02:55:07;11.20;1.00
3778;DHT22;1904;50.076;8.660;2023-04-24T02:57:33;11.30;1.00
3778;DHT22;1904;50.076;8.660;2023-04-24T03:00:12;11.30;1.00
3778;DHT22;1904;50.076;8.660;2023-04-24T03:02:42;11.30;1.00
3778;DHT22;1904;50.076;8.660;2023-04-24T03:05:17;11.30;1.00
3778;DHT22;1904;50.076;8.660;2023-04-24T03:07:43;11.40;1.00
3778;DHT22;1904;50.076;8.660;2023-04-24T03:13:01;11.30;1.00
3778;DHT22;1904;50.076;8.660;2023-04-24T03:15:30;11.30;1.00
3778;DHT22;1904;50.076;8.660;2023-04-24T03:17:55;11.30;1.00
3778;DHT22;1904;50.076;8.660;2023-04-24T03:20:24;11.30;1.00
3778;DHT22;1904;50.076;8.660;2023-04-24T03:22:49;11.30;1.00
3778;DHT22;1904;50.076;8.660;2023-04-24T03:25:15;11.40;1.00
3778;DHT22;1904;50.076;8.660;2023-04-24T03:27:40;11.40;1.00
3778;DHT22;1904;50.076;8.660;2023-04-24T03:30:07;11.40;1.00
3778;DHT22;1904;50.076;8.660;2023-04-24T03:32:33;11.40;1.00
3778;DHT22;1904;50.076;8.660;2023-04-24T03:34:58;11.50;1.00
3778;DHT22;1904;50.076;8.660;2023-04-24T03:37:29;11.40;1.00
3778;DHT22;1904;50.076;8.660;2023-04-24T03:39:55;11.40;1.00
3778;DHT22;1904;50.076;8.660;2023-04-24T03:48:13;11.40;1.00
3778;DHT22;1904;50.076;8.660;2023-04-24T03:50:39;11.40;1.00
3778;DHT22;1904;50.076;8.660;2023-04-24T03:53:04;11.40;1.00
3778;DHT22;1904;50.076;8.660;2023-04-24T03:55:30;11.40;1.00
3778;DHT22;1904;50.076;8.660;2023-04-24T03:57:55;11.40;1.00
3778;DHT22;1904;50.076;8.660;2023-04-24T04:00:30;11.30;1.00
3778;DHT22;1904;50.076;8.660;2023-04-24T04:02:57;11.30;1.00
3778;DHT22;1904;50.076;8.660;2023-04-24T04:05:23;11.30;1.00
3778;DHT22;1904;50.076;8.660;2023-04-24T04:07:48;11.90;1.00
3778;DHT22;1904;50.076;8.660;2023-04-24T04:10:24;11.30;1.00
3778;DHT22;1904;50.076;8.660;2023-04-24T04:15:52;11.30;1.00
3778;DHT22;1904;50.076;8.660;2023-04-24T04:36:36;11.10;1.00
3778;DHT22;1904;50.076;8.660;2023-04-24T04:39:06;10.90;1.00
3778;DHT22;1904;50.076;8.660;2023-04-24T04:50:28;11.00;1.00
3778;DHT22;1904;50.076;8.660;2023-04-24T04:55:57;10.90;1.00
3778;DHT22;1904;50.076;8.660;2023-04-24T05:10:02;10.60;1.00
3778;DHT22;1904;50.076;8.660;2023-04-24T05:18:36;10.50;1.00
3778;DHT22;1904;50.076;8.660;2023-04-24T05:24:04;10.40;1.00
3778;DHT22;1904;50.076;8.660;2023-04-24T05:26:30;10.50;1.00
3778;DHT22;1904;50.076;8.660;2023-04-24T05:31:59;10.50;1.00
3778;DHT22;1904;50.076;8.660;2023-04-24T05:37:28;10.50;1.00
3778;DHT22;1904;50.076;8.660;2023-04-24T05:40:12;10.50;1.00
3778;DHT22;1904;50.076;8.660;2023-04-24T05:45:40;10.60;1.00
3778;DHT22;1904;50.076;8.660;2023-04-24T05:51:09;10.70;1.00
3778;DHT22;1904;50.076;8.660;2023-04-24T05:59:42;11.10;1.00
3778;DHT22;1904;50.076;8.660;2023-04-24T06:02:12;11.30;1.00
3778;DHT22;1904;50.076;8.660;2023-04-24T06:07:40;11.50;1.00
3778;DHT22;1904;50.076;8.660;2023-04-24T06:13:10;11.60;1.00
3778;DHT22;1904;50.076;8.660;2023-04-24T06:18:39;11.70;1.00
3778;DHT22;1904;50.076;8.660;2023-04-24T06:24:08;11.90;1.00
3778;DHT22;1904;50.076;8.660;2023-04-24T06:26:42;11.70;1.00
3778;DHT22;1904;50.076;8.660;2023-04-24T06:32:10;11.50;1.00
3778;DHT22;1904;50.076;8.660;2023-04-24T06:34:36;11.60;1.00
3778;DHT22;1904;50.076;8.660;2023-04-24T06:52:13;11.60;1.00
3778;DHT22;1904;50.076;8.660;2023-04-24T06:54:38;11.50;1.00
3778;DHT22;1904;50.076;8.660;2023-04-24T06:57:06;11.50;1.00
3778;DHT22;1904;50.076;8.660;2023-04-24T06:59:36;11.50;1.00
3778;DHT22;1904;50.076;8.660;2023-04-24T07:02:02;11.40;1.00
3778;DHT22;1904;50.076;8.660;2023-04-24T07:04:30;11.40;1.00
3778;DHT22;1904;50.076;8.660;2023-04-24T07:07:00;11.40;1.00
3778;DHT22;1904;50.076;8.660;2023-04-24T07:12:30;11.40;1.00
3778;DHT22;1904;50.076;8.660;2023-04-24T07:21:01;11.40;1.00
3778;DHT22;1904;50.076;8.660;2023-04-24T07:26:18;11.70;1.00
3778;DHT22;1904;50.076;8.660;2023-04-24T07:34:42;12.20;1.00
3778;DHT22;1904;50.076;8.660;2023-04-24T07:43:19;12.40;1.00
3778;DHT22;1904;50.076;8.660;2023-04-24T07:48:48;12.20;1.00
3778;DHT22;1904;50.076;8.660;2023-04-24T07:54:17;11.70;1.00
3778;DHT22;1904;50.076;8.660;2023-04-24T08:02:46;12.00;1.00
3778;DHT22;1904;50.076;8.660;2023-04-24T08:05:11;12.30;1.00
3778;DHT22;1904;50.076;8.660;2023-04-24T08:10:40;12.30;1.00
3778;DHT22;1904;50.076;8.660;2023-04-24T08:13:18;12.50;1.00
3778;DHT22;1904;50.076;8.660;2023-04-24T08:15:43;12.60;1.00
3778;DHT22;1904;50.076;8.660;2023-04-24T08:24:11;12.60;1.00
3778;DHT22;1904;50.076;8.660;2023-04-24T08:26:50;12.70;1.00
3778;DHT22;1904;50.076;8.660;2023-04-24T08:29:41;13.00;1.00
3778;DHT22;1904;50.076;8.660;2023-04-24T08:32:18;13.00;1.00
3778;DHT22;1904;50.076;8.660;2023-04-24T08:35:15;13.00;1.00
3778;DHT22;1904;50.076;8.660;2023-04-24T08:37:58;13.00;1.00
3778;DHT22;1904;50.076;8.660;2023-04-24T08:43:25;13.10;1.00
3778;DHT22;1904;50.076;8.660;2023-04-24T08:46:12;13.30;1.00
3778;DHT22;1904;50.076;8.660;2023-04-24T08:48:39;13.40;1.00
3778;DHT22;1904;50.076;8.660;2023-04-24T08:51:09;13.60;1.00
3778;DHT22;1904;50.076;8.660;2023-04-24T08:53:36;13.60;1.00
3778;DHT22;1904;50.076;8.660;2023-04-24T08:56:03;13.40;1.00
3778;DHT22;1904;50.076;8.660;2023-04-24T08:58:29;13.40;1.00
3778;DHT22;1904;50.076;8.660;2023-04-24T09:00:57;13.30;1.00
3778;DHT22;1904;50.076;8.660;2023-04-24T09:03:24;13.20;1.00
3778;DHT22;1904;50.076;8.660;2023-04-24T09:06:12;12.80;1.00
3778;DHT22;1904;50.076;8.660;2023-04-24T09:08:43;12.80;1.00
3778;DHT22;1904;50.076;8.660;2023-04-24T09:11:25;12.70;1.00
3778;DHT22;1904;50.076;8.660;2023-04-24T09:14:06;12.60;1.00
3778;DHT22;1904;50.076;8.660;2023-04-24T09:17:00;12.40;1.00
3778;DHT22;1904;50.076;8.660;2023-04-24T09:22:45;12.30;1.00
3778;DHT22;1904;50.076;8.660;2023-04-24T09:28:39;12.30;1.00
3778;DHT22;1904;50.076;8.660;2023-04-24T09:34:30;12.70;1.00
3778;DHT22;1904;50.076;8.660;2023-04-24T09:37:00;12.60;1.00
3778;DHT22;1904;50.076;8.660;2023-04-24T09:39:30;12.50;1.00
3778;DHT22;1904;50.076;8.660;2023-04-24T09:42:01;12.50;1.00
3778;DHT22;1904;50.076;8.660;2023-04-24T09:44:28;12.40;1.00
3778;DHT22;1904;50.076;8.660;2023-04-24T09:47:00;12.40;1.00
3778;DHT22;1904;50.076;8.660;2023-04-24T09:55:53;12.50;1.00
3778;DHT22;1904;50.076;8.660;2023-04-24T09:58:48;12.70;1.00
3778;DHT22;1904;50.076;8.660;2023-04-24T10:08:05;13.30;1.00
3778;DHT22;1904;50.076;8.660;2023-04-24T10:17:16;13.70;1.00
3778;DHT22;1904;50.076;8.660;2023-04-24T10:29:35;13.80;1.00
3778;DHT22;1904;50.076;8.660;2023-04-24T10:32:36;13.40;1.00
3778;DHT22;1904;50.076;8.660;2023-04-24T10:35:02;13.10;1.00
3778;DHT22;1904;50.076;8.660;2023-04-24T10:37:28;13.00;1.00
3778;DHT22;1904;50.076;8.660;2023-04-24T10:39:55;13.00;1.00
3778;DHT22;1904;50.076;8.660;2023-04-24T10:42:27;13.10;1.00
3778;DHT22;1904;50.076;8.660;2023-04-24T10:45:06;13.10;1.00
3778;DHT22;1904;50.076;8.660;2023-04-24T10:48:08;13.20;1.00
3778;DHT22;1904;50.076;8.660;2023-04-24T11:00:20;12.80;1.00
3778;DHT22;1904;50.076;8.660;2023-04-24T11:02:48;12.90;1.00
3778;DHT22;1904;50.076;8.660;2023-04-24T11:05:20;13.20;1.00
3778;DHT22;1904;50.076;8.660;2023-04-24T11:14:01;13.50;1.00
3778;DHT22;1904;50.076;8.660;2023-04-24T11:24:25;14.70;1.00
3778;DHT22;1904;50.076;8.660;2023-04-24T11:26:56;14.90;1.00
3778;DHT22;1904;50.076;8.660;2023-04-24T11:32:46;15.10;1.00
3778;DHT22;1904;50.076;8.660;2023-04-24T11:35:24;15.00;1.00
3778;DHT22;1904;50.076;8.660;2023-04-24T11:37:54;15.00;1.00
3778;DHT22;1904;50.076;8.660;2023-04-24T11:40:42;14.70;1.00
3778;DHT22;1904;50.076;8.660;2023-04-24T11:43:09;14.60;1.00
3778;DHT22;1904;50.076;8.660;2023-04-24T11:48:03;14.90;1.00
3778;DHT22;1904;50.076;8.660;2023-04-24T11:50:29;14.90;1.00
3778;DHT22;1904;50.076;8.660;2023-04-24T11:53:19;14.80;1.00
3778;DHT22;1904;50.076;8.660;2023-04-24T11:55:47;14.70;1.00
3778;DHT22;1904;50.076;8.660;2023-04-24T11:58:16;14.60;1.00
3778;DHT22;1904;50.076;8.660;2023-04-24T12:00:56;14.80;1.00
3778;DHT22;1904;50.076;8.660;2023-04-24T12:03:31;15.20;1.00
3778;DHT22;1904;50.076;8.660;2023-04-24T12:06:06;15.30;1.00
3778;DHT22;1904;50.076;8.660;2023-04-24T12:08:33;15.50;1.00
3778;DHT22;1904;50.076;8.660;2023-04-24T12:11:04;15.60;1.00
3778;DHT22;1904;50.076;8.660;2023-04-24T12:13:30;15.60;1.00
3778;DHT22;1904;50.076;8.660;2023-04-24T12:16:01;16.10;1.00
3778;DHT22;1904;50.076;8.660;2023-04-24T12:18:27;16.00;1.00
3778;DHT22;1904;50.076;8.660;2023-04-24T12:21:21;15.50;1.00
3778;DHT22;1904;50.076;8.660;2023-04-24T12:24:18;15.20;1.00
3778;DHT22;1904;50.076;8.660;2023-04-24T12:26:44;14.60;1.00
3778;DHT22;1904;50.076;8.660;2023-04-24T12:29:22;14.00;1.00
3778;DHT22;1904;50.076;8.660;2023-04-24T12:31:49;13.30;1.00
3778;DHT22;1904;50.076;8.660;2023-04-24T12:34:43;12.80;1.00
3778;DHT22;1904;50.076;8.660;2023-04-24T12:40:20;12.60;1.00
3778;DHT22;1904;50.076;8.660;2023-04-24T12:42:50;12.30;1.00
3778;DHT22;1904;50.076;8.660;2023-04-24T12:45:19;12.20;1.00
3778;DHT22;1904;50.076;8.660;2023-04-24T12:48:18;12.50;1.00
3778;DHT22;1904;50.076;8.660;2023-04-24T12:53:48;12.60;1.00
3778;DHT22;1904;50.076;8.660;2023-04-24T12:56:14;12.90;1.00
3778;DHT22;1904;50.076;8.660;2023-04-24T12:58:39;13.00;1.00
3778;DHT22;1904;50.076;8.660;2023-04-24T13:01:18;13.20;1.00
3778;DHT22;1904;50.076;8.660;2023-04-24T13:13:30;14.70;1.00
3778;DHT22;1904;50.076;8.660;2023-04-24T13:19:18;14.90;1.00
3778;DHT22;1904;50.076;8.660;2023-04-24T13:24:48;14.90;1.00
3778;DHT22;1904;50.076;8.660;2023-04-24T13:27:18;15.40;1.00
3778;DHT22;1904;50.076;8.660;2023-04-24T13:30:01;15.80;1.00
3778;DHT22;1904;50.076;8.660;2023-04-24T13:32:36;16.00;1.00
3778;DHT22;1904;50.076;8.660;2023-04-24T13:35:18;16.10;1.00
3778;DHT22;1904;50.076;8.660;2023-04-24T13:41:06;15.80;1.00
3778;DHT22;1904;50.076;8.660;2023-04-24T13:43:42;15.50;1.00
3778;DHT22;1904;50.076;8.660;2023-04-24T13:46:36;15.20;1.00
3778;DHT22;1904;50.076;8.660;2023-04-24T13:49:18;15.00;1.00
3778;DHT22;1904;50.076;8.660;2023-04-24T13:51:44;15.00;1.00
3778;DHT22;1904;50.076;8.660;2023-04-24T13:54:24;15.00;1.00
3778;DHT22;1904;50.076;8.660;2023-04-24T13:56:57;15.20;1.00
3778;DHT22;1904;50.076;8.660;2023-04-24T13:59:36;15.40;1.00
3778;DHT22;1904;50.076;8.660;2023-04-24T14:02:02;15.40;1.00
3778;DHT22;1904;50.076;8.660;2023-04-24T14:04:30;15.40;1.00
3778;DHT22;1904;50.076;8.660;2023-04-24T14:07:12;15.10;1.00
3778;DHT22;1904;50.076;8.660;2023-04-24T14:09:48;15.00;1.00
3778;DHT22;1904;50.076;8.660;2023-04-24T14:12:18;14.80;1.00
3778;DHT22;1904;50.076;8.660;2023-04-24T14:15:06;14.70;1.00
3778;DHT22;1904;50.076;8.660;2023-04-24T14:18:00;14.60;1.00
3778;DHT22;1904;50.076;8.660;2023-04-24T14:20:36;14.70;1.00
3778;DHT22;1904;50.076;8.660;2023-04-24T14:23:18;14.70;1.00
3778;DHT22;1904;50.076;8.660;2023-04-24T14:29:00;15.20;1.00
3778;DHT22;1904;50.076;8.660;2023-04-24T14:31:43;15.30;1.00
3778;DHT22;1904;50.076;8.660;2023-04-24T14:34:09;15.30;1.00
3778;DHT22;1904;50.076;8.660;2023-04-24T14:36:42;15.30;1.00
3778;DHT22;1904;50.076;8.660;2023-04-24T14:42:24;15.60;1.00
3778;DHT22;1904;50.076;8.660;2023-04-24T14:45:12;15.70;1.00
3778;DHT22;1904;50.076;8.660;2023-04-24T14:47:38;15.30;1.00
3778;DHT22;1904;50.076;8.660;2023-04-24T14:50:12;14.90;1.00
3778;DHT22;1904;50.076;8.660;2023-04-24T14:52:48;14.70;1.00
3778;DHT22;1904;50.076;8.660;2023-04-24T14:55:17;14.40;1.00
3778;DHT22;1904;50.076;8.660;2023-04-24T14:57:44;14.30;1.00
3778;DHT22;1904;50.076;8.660;2023-04-24T15:00:13;14.40;1.00
3778;DHT22;1904;50.076;8.660;2023-04-24T15:06:18;14.50;1.00
3778;DHT22;1904;50.076;8.660;2023-04-24T15:09:00;14.40;1.00
3778;DHT22;1904;50.076;8.660;2023-04-24T15:11:54;14.70;1.00
3778;DHT22;1904;50.076;8.660;2023-04-24T15:14:20;14.60;1.00
3778;DHT22;1904;50.076;8.660;2023-04-24T15:17:06;14.40;1.00
3778;DHT22;1904;50.076;8.660;2023-04-24T15:23:30;14.20;1.00
3778;DHT22;1904;50.076;8.660;2023-04-24T15:26:00;14.20;1.00
3778;DHT22;1904;50.076;8.660;2023-04-24T15:28:27;14.20;1.00
3778;DHT22;1904;50.076;8.660;2023-04-24T15:30:54;14.40;1.00
3778;DHT22;1904;50.076;8.660;2023-04-24T15:33:20;14.50;1.00
3778;DHT22;1904;50.076;8.660;2023-04-24T15:35:46;14.40;1.00
3778;DHT22;1904;50.076;8.660;2023-04-24T15:38:13;14.40;1.00
3778;DHT22;1904;50.076;8.660;2023-04-24T15:40:42;14.40;1.00
3778;DHT22;1904;50.076;8.660;2023-04-24T15:43:10;14.40;1.00
3778;DHT22;1904;50.076;8.660;2023-04-24T15:45:36;14.30;1.00
3778;DHT22;1904;50.076;8.660;2023-04-24T15:48:06;14.40;1.00
3778;DHT22;1904;50.076;8.660;2023-04-24T15:50:32;14.30;1.00
3778;DHT22;1904;50.076;8.660;2023-04-24T15:52:58;14.30;1.00
3778;DHT22;1904;50.076;8.660;2023-04-24T15:55:24;14.20;1.00
3778;DHT22;1904;50.076;8.660;2023-04-24T15:58:06;14.10;1.00
3778;DHT22;1904;50.076;8.660;2023-04-24T16:00:42;14.10;1.00
3778;DHT22;1904;50.076;8.660;2023-04-24T16:03:08;14.00;1.00
3778;DHT22;1904;50.076;8.660;2023-04-24T16:05:34;14.10;1.00
3778;DHT22;1904;50.076;8.660;2023-04-24T16:08:00;14.30;1.00
3778;DHT22;1904;50.076;8.660;2023-04-24T16:10:26;15.20;1.00
3778;DHT22;1904;50.076;8.660;2023-04-24T16:12:52;16.40;1.00
3778;DHT22;1904;50.076;8.660;2023-04-24T16:15:19;16.30;1.00
3778;DHT22;1904;50.076;8.660;2023-04-24T16:17:46;16.30;1.00
3778;DHT22;1904;50.076;8.660;2023-04-24T16:20:13;16.30;1.00
3778;DHT22;1904;50.076;8.660;2023-04-24T16:22:39;16.10;1.00
3778;DHT22;1904;50.076;8.660;2023-04-24T16:25:36;15.70;1.00
3778;DHT22;1904;50.076;8.660;2023-04-24T16:28:02;15.20;1.00
3778;DHT22;1904;50.076;8.660;2023-04-24T16:30:36;14.90;1.00
3778;DHT22;1904;50.076;8.660;2023-04-24T16:33:04;14.80;1.00
3778;DHT22;1904;50.076;8.660;2023-04-24T16:36:00;14.50;1.00
3778;DHT22;1904;50.076;8.660;2023-04-24T16:41:54;14.40;1.00
3778;DHT22;1904;50.076;8.660;2023-04-24T16:47:20;14.50;1.00
3778;DHT22;1904;50.076;8.660;2023-04-24T16:53:08;14.30;1.00
3778;DHT22;1904;50.076;8.660;2023-04-24T16:55:33;14.50;1.00
3778;DHT22;1904;50.076;8.660;2023-04-24T16:58:00;14.70;1.00
3778;DHT22;1904;50.076;8.660;2023-04-24T17:04:12;14.80;1.00
3778;DHT22;1904;50.076;8.660;2023-04-24T17:06:42;14.80;1.00
3778;DHT22;1904;50.076;8.660;2023-04-24T17:13:00;14.70;1.00
3778;DHT22;1904;50.076;8.660;2023-04-24T17:15:36;14.70;1.00
3778;DHT22;1904;50.076;8.660;2023-04-24T17:21:30;14.50;1.00
3778;DHT22;1904;50.076;8.660;2023-04-24T17:24:06;14.30;1.00
3778;DHT22;1904;50.076;8.660;2023-04-24T17:26:33;14.20;1.00
3778;DHT22;1904;50.076;8.660;2023-04-24T17:28:59;14.10;1.00
3778;DHT22;1904;50.076;8.660;2023-04-24T17:31:24;14.20;1.00
3778;DHT22;1904;50.076;8.660;2023-04-24T17:34:24;14.30;1.00
3778;DHT22;1904;50.076;8.660;2023-04-24T17:37:00;14.50;1.00
3778;DHT22;1904;50.076;8.660;2023-04-24T17:39:27;14.60;1.00
3778;DHT22;1904;50.076;8.660;2023-04-24T17:41:54;14.40;1.00
3778;DHT22;1904;50.076;8.660;2023-04-24T17:44:42;14.40;1.00
3778;DHT22;1904;50.076;8.660;2023-04-24T17:47:12;14.30;1.00
3778;DHT22;1904;50.076;8.660;2023-04-24T17:49:38;14.20;1.00
3778;DHT22;1904;50.076;8.660;2023-04-24T17:52:05;14.10;1.00
3778;DHT22;1904;50.076;8.660;2023-04-24T17:54:31;14.00;1.00
3778;DHT22;1904;50.076;8.660;2023-04-24T17:57:00;13.90;1.00
3778;DHT22;1904;50.076;8.660;2023-04-24T18:05:50;13.40;1.00
3778;DHT22;1904;50.076;8.660;2023-04-24T18:08:36;13.10;1.00
3778;DHT22;1904;50.076;8.660;2023-04-24T18:14:24;12.70;1.00
3778;DHT22;1904;50.076;8.660;2023-04-24T18:20:00;12.30;1.00
3778;DHT22;1904;50.076;8.660;2023-04-24T18:22:26;12.20;1.00
3778;DHT22;1904;50.076;8.660;2023-04-24T18:25:18;12.10;1.00
3778;DHT22;1904;50.076;8.660;2023-04-24T18:31:12;11.90;1.00
3778;DHT22;1904;50.076;8.660;2023-04-24T18:33:38;11.80;1.00
3778;DHT22;1904;50.076;8.660;2023-04-24T18:36:18;11.80;1.00
3778;DHT22;1904;50.076;8.660;2023-04-24T18:38:54;11.80;1.00
3778;DHT22;1904;50.076;8.660;2023-04-24T18:41:48;11.70;1.00
3778;DHT22;1904;50.076;8.660;2023-04-24T18:44:14;11.70;1.00
3778;DHT22;1904;50.076;8.660;2023-04-24T18:47:06;11.70;1.00
3778;DHT22;1904;50.076;8.660;2023-04-24T18:49:32;11.70;1.00
3778;DHT22;1904;50.076;8.660;2023-04-24T18:51:58;11.70;1.00
3778;DHT22;1904;50.076;8.660;2023-04-24T18:54:42;11.70;1.00
3778;DHT22;1904;50.076;8.660;2023-04-24T18:57:30;11.70;1.00
3778;DHT22;1904;50.076;8.660;2023-04-24T19:00:12;11.70;1.00
3778;DHT22;1904;50.076;8.660;2023-04-24T19:06:12;11.60;1.00
3778;DHT22;1904;50.076;8.660;2023-04-24T19:08:42;11.60;1.00
3778;DHT22;1904;50.076;8.660;2023-04-24T19:11:12;11.70;1.00
3778;DHT22;1904;50.076;8.660;2023-04-24T19:13:42;11.70;1.00
3778;DHT22;1904;50.076;8.660;2023-04-24T19:16:31;11.50;1.00
3778;DHT22;1904;50.076;8.660;2023-04-24T19:19:00;11.50;1.00
3778;DHT22;1904;50.076;8.660;2023-04-24T19:21:43;11.60;1.00
3778;DHT22;1904;50.076;8.660;2023-04-24T19:24:15;11.30;1.00
3778;DHT22;1904;50.076;8.660;2023-04-24T19:26:48;11.30;1.00
3778;DHT22;1904;50.076;8.660;2023-04-24T19:29:14;11.20;1.00
3778;DHT22;1904;50.076;8.660;2023-04-24T19:31:42;11.10;1.00
3778;DHT22;1904;50.076;8.660;2023-04-24T19:34:16;11.00;1.00
3778;DHT22;1904;50.076;8.660;2023-04-24T19:37:12;11.10;1.00
3778;DHT22;1904;50.076;8.660;2023-04-24T19:39:38;11.00;1.00
3778;DHT22;1904;50.076;8.660;2023-04-24T19:42:13;11.00;1.00
3778;DHT22;1904;50.076;8.660;2023-04-24T19:45:06;11.10;1.00
3778;DHT22;1904;50.076;8.660;2023-04-24T19:47:49;11.10;1.00
3778;DHT22;1904;50.076;8.660;2023-04-24T19:50:18;11.00;1.00
3778;DHT22;1904;50.076;8.660;2023-04-24T19:52:48;10.90;1.00
3778;DHT22;1904;50.076;8.660;2023-04-24T19:55:17;10.90;1.00
3778;DHT22;1904;50.076;8.660;2023-04-24T19:57:43;10.80;1.00
3778;DHT22;1904;50.076;8.660;2023-04-24T20:03:31;10.80;1.00
3778;DHT22;1904;50.076;8.660;2023-04-24T20:09:02;10.70;1.00
3778;DHT22;1904;50.076;8.660;2023-04-24T20:11:42;10.70;1.00
3778;DHT22;1904;50.076;8.660;2023-04-24T20:14:36;10.60;1.00
3778;DHT22;1904;50.076;8.660;2023-04-24T20:20:14;10.50;1.00
3778;DHT22;1904;50.076;8.660;2023-04-24T20:26:01;10.60;1.00
3778;DHT22;1904;50.076;8.660;2023-04-24T20:28:42;10.60;1.00
3778;DHT22;1904;50.076;8.660;2023-04-24T20:31:24;10.60;1.00
3778;DHT22;1904;50.076;8.660;2023-04-24T20:34:01;10.60;1.00
3778;DHT22;1904;50.076;8.660;2023-04-24T20:39:48;10.50;1.00
3778;DHT22;1904;50.076;8.660;2023-04-24T20:45:55;10.50;1.00
3778;DHT22;1904;50.076;8.660;2023-04-24T20:55:03;10.40;1.00
3778;DHT22;1904;50.076;8.660;2023-04-24T21:01:12;10.30;1.00
3778;DHT22;1904;50.076;8.660;2023-04-24T21:04:00;10.30;1.00
3778;DHT22;1904;50.076;8.660;2023-04-24T21:06:36;10.30;1.00
3778;DHT22;1904;50.076;8.660;2023-04-24T21:09:18;10.30;1.00
3778;DHT22;1904;50.076;8.660;2023-04-24T21:15:12;10.40;1.00
3778;DHT22;1904;50.076;8.660;2023-04-24T21:24:18;10.50;1.00
3778;DHT22;1904;50.076;8.660;2023-04-24T21:26:54;10.50;1.00
3778;DHT22;1904;50.076;8.660;2023-04-24T21:29:20;10.50;1.00
3778;DHT22;1904;50.076;8.660;2023-04-24T21:31:49;10.50;1.00
3778;DHT22;1904;50.076;8.660;2023-04-24T21:34:18;10.40;1.00
3778;DHT22;1904;50.076;8.660;2023-04-24T21:36:44;10.40;1.00
3778;DHT22;1904;50.076;8.660;2023-04-24T21:39:12;10.50;1.00
3778;DHT22;1904;50.076;8.660;2023-04-24T21:41:48;10.60;1.00
3778;DHT22;1904;50.076;8.660;2023-04-24T21:44:14;10.40;1.00
3778;DHT22;1904;50.076;8.660;2023-04-24T21:46:40;10.40;1.00
3778;DHT22;1904;50.076;8.660;2023-04-24T21:49:19;10.50;1.00
3778;DHT22;1904;50.076;8.660;2023-04-24T21:51:45;10.50;1.00
3778;DHT22;1904;50.076;8.660;2023-04-24T21:54:10;10.50;1.00
3778;DHT22;1904;50.076;8.660;2023-04-24T21:56:37;10.50;1.00
3778;DHT22;1904;50.076;8.660;2023-04-24T21:59:08;10.40;1.00
3778;DHT22;1904;50.076;8.660;2023-04-24T22:01:36;10.50;1.00
3778;DHT22;1904;50.076;8.660;2023-04-24T22:04:02;10.50;1.00
3778;DHT22;1904;50.076;8.660;2023-04-24T22:06:31;10.50;1.00
3778;DHT22;1904;50.076;8.660;2023-04-24T22:09:01;10.70;1.00
3778;DHT22;1904;50.076;8.660;2023-04-24T22:14:48;10.50;1.00
3778;DHT22;1904;50.076;8.660;2023-04-24T22:17:30;10.40;1.00
3778;DHT22;1904;50.076;8.660;2023-04-24T22:26:38;10.20;1.00
3778;DHT22;1904;50.076;8.660;2023-04-24T22:29:04;10.20;1.00
3778;DHT22;1904;50.076;8.660;2023-04-24T22:31:30;10.20;1.00
3778;DHT22;1904;50.076;8.660;2023-04-24T22:33:56;10.40;1.00
3778;DHT22;1904;50.076;8.660;2023-04-24T22:36:22;10.10;1.00
3778;DHT22;1904;50.076;8.660;2023-04-24T22:38:48;10.20;1.00
3778;DHT22;1904;50.076;8.660;2023-04-24T22:44:35;10.20;1.00
3778;DHT22;1904;50.076;8.660;2023-04-24T22:50:42;10.20;1.00
3778;DHT22;1904;50.076;8.660;2023-04-24T22:53:42;10.20;1.00
3778;DHT22;1904;50.076;8.660;2023-04-24T22:56:14;10.00;1.00
3778;DHT22;1904;50.076;8.660;2023-04-24T22:58:39;10.00;1.00
3778;DHT22;1904;50.076;8.660;2023-04-24T23:01:24;10.00;1.00
3778;DHT22;1904;50.076;8.660;2023-04-24T23:04:01;10.00;1.00
3778;DHT22;1904;50.076;8.660;2023-04-24T23:06:30;10.10;1.00
3778;DHT22;1904;50.076;8.660;2023-04-24T23:09:01;10.10;1.00
3778;DHT22;1904;50.076;8.660;2023-04-24T23:15:06;9.90;1.00
3778;DHT22;1904;50.076;8.660;2023-04-24T23:20:54;10.00;1.00
3778;DHT22;1904;50.076;8.660;2023-04-24T23:23:42;10.10;1.00
3778;DHT22;1904;50.076;8.660;2023-04-24T23:26:25;10.10;1.00
3778;DHT22;1904;50.076;8.660;2023-04-24T23:41:49;9.90;1.00
3778;DHT22;1904;50.076;8.660;2023-04-24T23:44:18;9.80;1.00
3778;DHT22;1904;50.076;8.660;2023-04-24T23:46:49;9.80;1.00
3778;DHT22;1904;50.076;8.660;2023-04-24T23:49:18;9.70;1.00
3778;DHT22;1904;50.076;8.660;2023-04-24T23:51:45;9.60;1.00
3778;DHT22;1904;50.076;8.660;2023-04-24T23:54:13;9.60;1.00
3778;DHT22;1904;50.076;8.660;2023-04-24T23:56:48;10.00;1.00
3778;DHT22;1904;50.076;8.660;2023-04-24T23:59:14;9.60;1.00
